createdAt,value
2023-02-02T00:01:53.126Z,97295.84
2023-02-02T00:04:36.635Z,97296.48
2023-02-02T00:07:05.769Z,97300.10
2023-02-02T00:09:34.470Z,97299.15
2023-02-02T00:12:03.070Z,97296.88
2023-02-02T00:14:31.494Z,97292.27
2023-02-02T00:16:59.961Z,97291.55
2023-02-02T00:19:30.559Z,97294.73
2023-02-02T00:21:59.428Z,97294.55
2023-02-02T00:24:28.126Z,97296.98
2023-02-02T00:26:59.042Z,97297.19
2023-02-02T00:29:30.164Z,97296.30
2023-02-02T00:31:58.723Z,97295.76
2023-02-02T00:34:27.270Z,97290.98
2023-02-02T00:36:55.767Z,97290.73
2023-02-02T00:39:28.913Z,97289.98
2023-02-02T00:41:57.339Z,97287.89
2023-02-02T00:44:44.433Z,97284.77
2023-02-02T00:47:12.995Z,97284.98
2023-02-02T00:49:41.505Z,97284.90
2023-02-02T00:52:10.174Z,97282.13
2023-02-02T00:54:38.675Z,97279.48
2023-02-02T00:57:07.486Z,97279.54
2023-02-02T00:59:35.956Z,97280.75
2023-02-02T01:02:04.503Z,97275.38
2023-02-02T01:04:33.000Z,97275.86
2023-02-02T01:07:01.482Z,97271.80
2023-02-02T01:09:29.871Z,97266.36
2023-02-02T01:11:58.623Z,97264.20
2023-02-02T01:14:27.443Z,97262.54
2023-02-02T01:16:57.492Z,97262.77
2023-02-02T01:19:27.169Z,97260.96
2023-02-02T01:21:55.638Z,97257.32
2023-02-02T01:24:24.536Z,97256.16
2023-02-02T01:26:53.002Z,97251.90
2023-02-02T01:29:21.580Z,97249.05
2023-02-02T01:31:50.527Z,97242.81
2023-02-02T01:34:19.472Z,97240.71
2023-02-02T01:36:48.312Z,97235.49
2023-02-02T01:39:16.780Z,97234.74
2023-02-02T01:41:45.233Z,97231.06
2023-02-02T01:44:51.567Z,97233.20
2023-02-02T01:47:23.290Z,97233.04
2023-02-02T01:49:53.987Z,97233.71
2023-02-02T01:52:26.322Z,97232.46
2023-02-02T01:55:04.502Z,97229.67
2023-02-02T01:57:44.339Z,97231.77
2023-02-02T02:00:16.304Z,97230.18
2023-02-02T02:02:49.163Z,97232.94
2023-02-02T02:05:23.318Z,97232.15
2023-02-02T02:07:54.637Z,97230.83
2023-02-02T02:10:23.269Z,97227.00
2023-02-02T02:12:52.237Z,97224.73
2023-02-02T02:15:40.700Z,97222.84
2023-02-02T02:18:33.102Z,97219.00
2023-02-02T02:21:43.253Z,97222.92
2023-02-02T02:25:11.370Z,97228.38
2023-02-02T02:28:17.755Z,97231.16
2023-02-02T02:30:52.857Z,97231.48
2023-02-02T02:33:34.633Z,97228.12
2023-02-02T02:36:15.455Z,97227.48
2023-02-02T02:39:12.773Z,97231.77
2023-02-02T02:41:49.686Z,97231.35
2023-02-02T02:44:20.421Z,97230.23
2023-02-02T02:46:50.738Z,97229.48
2023-02-02T02:49:19.769Z,97224.92
2023-02-02T02:51:52.867Z,97219.23
2023-02-02T02:54:36.513Z,97217.23
2023-02-02T02:57:28.497Z,97214.21
2023-02-02T03:00:35.252Z,97208.13
2023-02-02T03:03:29.706Z,97204.01
2023-02-02T03:06:07.393Z,97200.67
2023-02-02T03:09:09.025Z,97195.56
2023-02-02T03:11:37.730Z,97189.27
2023-02-02T03:14:09.760Z,97187.17
2023-02-02T03:16:38.355Z,97190.05
2023-02-02T03:19:08.571Z,97187.55
2023-02-02T03:21:37.051Z,97181.66
2023-02-02T03:24:05.796Z,97175.45
2023-02-02T03:26:35.207Z,97170.82
2023-02-02T03:29:04.352Z,97176.42
2023-02-02T03:31:32.883Z,97181.54
2023-02-02T03:34:01.502Z,97180.17
2023-02-02T03:36:30.421Z,97174.59
2023-02-02T03:38:58.878Z,97175.38
2023-02-02T03:41:27.254Z,97175.45
2023-02-02T03:43:55.675Z,97169.50
2023-02-02T03:46:24.220Z,97163.10
2023-02-02T03:48:52.698Z,97163.80
2023-02-02T03:51:21.126Z,97160.98
2023-02-02T03:53:49.600Z,97163.20
2023-02-02T03:56:19.662Z,97169.80
2023-02-02T03:58:48.141Z,97173.52
2023-02-02T04:01:16.637Z,97170.27
2023-02-02T04:03:46.543Z,97170.59
2023-02-02T04:06:15.036Z,97173.25
2023-02-02T04:08:43.444Z,97168.98
2023-02-02T04:11:12.188Z,97168.81
2023-02-02T04:13:41.141Z,97174.62
2023-02-02T04:16:11.000Z,97177.64
2023-02-02T04:18:39.890Z,97170.02
2023-02-02T04:21:08.994Z,97165.44
2023-02-02T04:23:38.030Z,97166.30
2023-02-02T04:26:06.818Z,97157.61
2023-02-02T04:28:35.540Z,97140.25
2023-02-02T04:31:04.149Z,97138.94
2023-02-02T04:33:34.567Z,97136.29
2023-02-02T04:36:03.628Z,97130.27
2023-02-02T04:38:32.207Z,97131.22
2023-02-02T04:41:07.964Z,97134.38
2023-02-02T04:43:37.645Z,97141.16
2023-02-02T04:46:06.408Z,97141.34
2023-02-02T04:48:35.112Z,97138.97
2023-02-02T04:51:06.739Z,97135.95
2023-02-02T04:53:36.042Z,97143.02
2023-02-02T04:56:15.855Z,97140.15
2023-02-02T04:58:45.807Z,97157.31
2023-02-02T05:01:19.479Z,97148.22
2023-02-02T05:03:49.172Z,97145.85
2023-02-02T05:06:18.148Z,97155.16
2023-02-02T05:08:48.987Z,97164.85
2023-02-02T05:11:20.306Z,97155.91
2023-02-02T05:13:51.736Z,97160.54
2023-02-02T05:16:21.578Z,97159.46
2023-02-02T05:18:55.425Z,97160.51
2023-02-02T05:21:24.276Z,97141.65
2023-02-02T05:23:52.789Z,97134.89
2023-02-02T05:26:26.963Z,97135.25
2023-02-02T05:28:57.125Z,97117.36
2023-02-02T05:31:25.648Z,97111.85
2023-02-02T05:33:54.159Z,97116.95
2023-02-02T05:36:22.652Z,97131.88
2023-02-02T05:38:51.172Z,97133.80
2023-02-02T05:41:19.665Z,97133.68
2023-02-02T05:43:48.161Z,97128.04
2023-02-02T05:46:16.801Z,97135.88
2023-02-02T05:48:45.273Z,97139.88
2023-02-02T05:51:24.217Z,97126.72
2023-02-02T05:53:52.731Z,97125.56
2023-02-02T05:56:21.414Z,97114.16
2023-02-02T05:58:50.100Z,97125.58
2023-02-02T06:01:19.845Z,97121.48
2023-02-02T06:03:48.701Z,97132.29
2023-02-02T06:06:17.342Z,97136.27
2023-02-02T06:08:45.746Z,97131.52
2023-02-02T06:11:16.863Z,97136.04
2023-02-02T06:13:46.160Z,97137.93
2023-02-02T06:16:15.305Z,97128.82
2023-02-02T06:18:44.080Z,97121.11
2023-02-02T06:21:12.515Z,97122.10
2023-02-02T06:23:46.032Z,97121.85
2023-02-02T06:26:16.513Z,97124.92
2023-02-02T06:28:50.245Z,97125.89
2023-02-02T06:31:19.702Z,97126.43
2023-02-02T06:33:54.679Z,97125.35
2023-02-02T06:36:23.863Z,97128.21
2023-02-02T06:38:54.946Z,97129.13
2023-02-02T06:41:24.544Z,97133.98
2023-02-02T06:43:53.051Z,97132.80
2023-02-02T06:46:21.722Z,97134.31
2023-02-02T06:48:50.277Z,97138.38
2023-02-02T06:51:19.580Z,97149.51
2023-02-02T06:53:49.745Z,97154.73
2023-02-02T06:56:18.387Z,97154.95
2023-02-02T06:58:46.856Z,97156.24
2023-02-02T07:01:15.506Z,97153.35
2023-02-02T07:03:44.184Z,97161.62
2023-02-02T07:06:15.567Z,97160.02
2023-02-02T07:08:44.525Z,97160.53
2023-02-02T07:11:16.597Z,97162.05
2023-02-02T07:13:47.159Z,97169.63
2023-02-02T07:16:17.722Z,97173.01
2023-02-02T07:18:48.569Z,97173.22
2023-02-02T07:21:29.564Z,97174.86
2023-02-02T07:23:58.075Z,97175.78
2023-02-02T07:26:27.771Z,97177.69
2023-02-02T07:28:56.348Z,97176.68
2023-02-02T07:31:26.731Z,97181.63
2023-02-02T07:33:55.339Z,97180.36
2023-02-02T07:36:24.931Z,97176.61
2023-02-02T07:39:02.525Z,97180.18
2023-02-02T07:41:32.248Z,97182.24
2023-02-02T07:44:00.709Z,97183.21
2023-02-02T07:46:29.590Z,97180.93
2023-02-02T07:48:58.294Z,97182.02
2023-02-02T07:51:27.039Z,97179.40
2023-02-02T07:53:58.728Z,97180.61
2023-02-02T07:56:28.641Z,97180.66
2023-02-02T07:58:57.717Z,97186.05
2023-02-02T08:01:28.680Z,97181.95
2023-02-02T08:04:03.731Z,97178.84
2023-02-02T08:06:35.639Z,97178.83
2023-02-02T08:09:10.489Z,97181.60
2023-02-02T08:11:39.666Z,97185.55
2023-02-02T08:14:08.565Z,97182.82
2023-02-02T08:16:37.177Z,97181.48
2023-02-02T08:19:06.067Z,97181.40
2023-02-02T08:21:35.640Z,97183.15
2023-02-02T08:24:05.389Z,97186.92
2023-02-02T08:26:33.865Z,97186.49
2023-02-02T08:29:08.592Z,97190.25
2023-02-02T08:31:41.981Z,97193.18
2023-02-02T08:34:12.516Z,97197.92
2023-02-02T08:36:41.534Z,97202.44
2023-02-02T08:39:14.537Z,97203.41
2023-02-02T08:42:02.753Z,97205.48
2023-02-02T08:46:00.464Z,97208.35
2023-02-02T08:47:33.107Z,97206.76
2023-02-02T08:50:01.597Z,97208.10
2023-02-02T08:52:30.078Z,97211.80
2023-02-02T08:54:58.584Z,97217.35
2023-02-02T08:57:28.391Z,97218.89
2023-02-02T08:59:57.079Z,97218.60
2023-02-02T09:02:25.624Z,97222.02
2023-02-02T09:04:54.274Z,97221.92
2023-02-02T09:07:22.899Z,97224.87
2023-02-02T09:09:54.212Z,97227.28
2023-02-02T09:12:22.768Z,97229.41
2023-02-02T09:14:51.266Z,97232.19
2023-02-02T09:17:19.835Z,97234.14
2023-02-02T09:19:48.416Z,97239.30
2023-02-02T09:22:16.855Z,97244.20
2023-02-02T09:24:45.272Z,97244.16
2023-02-02T09:27:13.810Z,97243.40
2023-02-02T09:29:42.236Z,97242.17
2023-02-02T09:32:10.937Z,97239.71
2023-02-02T09:34:40.185Z,97236.94
2023-02-02T09:37:09.741Z,97234.84
2023-02-02T09:39:38.154Z,97235.30
2023-02-02T09:42:06.505Z,97235.67
2023-02-02T09:44:38.004Z,97235.36
2023-02-02T09:47:27.943Z,97235.42
2023-02-02T09:49:59.416Z,97239.48
2023-02-02T09:52:43.915Z,97238.10
2023-02-02T09:55:23.572Z,97238.19
2023-02-02T09:57:57.350Z,97234.98
2023-02-02T10:00:35.436Z,97226.23
2023-02-02T10:03:16.276Z,97230.39
2023-02-02T10:06:13.841Z,97233.45
2023-02-02T10:09:28.932Z,97236.61
2023-02-02T10:11:57.429Z,97246.64
2023-02-02T10:14:32.911Z,97248.36
2023-02-02T10:17:19.037Z,97255.77
2023-02-02T10:19:53.038Z,97256.91
2023-02-02T10:22:26.037Z,97256.39
2023-02-02T10:24:55.025Z,97261.61
2023-02-02T10:27:37.902Z,97265.38
2023-02-02T10:30:47.018Z,97258.77
2023-02-02T10:33:29.189Z,97257.67
2023-02-02T10:36:07.820Z,97260.48
2023-02-02T10:38:53.184Z,97262.23
2023-02-02T10:41:41.667Z,97261.33
2023-02-02T10:44:36.564Z,97260.52
2023-02-02T10:47:10.023Z,97266.34
2023-02-02T10:49:40.527Z,97266.42
2023-02-02T10:52:12.044Z,97261.73
2023-02-02T10:55:05.572Z,97257.28
2023-02-02T10:58:12.689Z,97258.60
2023-02-02T11:00:58.397Z,97266.73
2023-02-02T11:03:32.958Z,97266.82
2023-02-02T11:06:23.066Z,97261.01
2023-02-02T11:08:57.271Z,97260.26
2023-02-02T11:11:34.679Z,97262.36
2023-02-02T11:14:09.593Z,97263.58
2023-02-02T11:16:44.640Z,97266.92
2023-02-02T11:19:19.875Z,97266.52
2023-02-02T11:21:53.143Z,97265.12
2023-02-02T11:24:26.836Z,97264.71
2023-02-02T11:27:05.755Z,97264.08
2023-02-02T11:29:43.951Z,97261.65
2023-02-02T11:32:35.436Z,97262.17
2023-02-02T11:35:09.083Z,97259.30
2023-02-02T11:38:14.656Z,97257.27
2023-02-02T11:40:52.574Z,97254.61
2023-02-02T11:43:28.725Z,97254.63
2023-02-02T11:46:03.195Z,97252.98
2023-02-02T11:48:39.495Z,97252.59
2023-02-02T11:51:21.336Z,97256.59
2023-02-02T11:53:58.665Z,97259.66
2023-02-02T11:56:27.566Z,97258.80
2023-02-02T11:58:59.479Z,97262.10
2023-02-02T12:01:30.535Z,97258.28
2023-02-02T12:04:22.180Z,97258.10
2023-02-02T12:06:50.662Z,97258.20
2023-02-02T12:09:24.765Z,97260.67
2023-02-02T12:12:17.769Z,97256.75
2023-02-02T12:15:20.108Z,97254.47
2023-02-02T12:17:52.762Z,97253.81
2023-02-02T12:20:21.440Z,97248.39
2023-02-02T12:23:09.415Z,97252.88
2023-02-02T12:26:00.419Z,97252.77
2023-02-02T12:29:04.024Z,97252.20
2023-02-02T12:31:51.509Z,97255.85
2023-02-02T12:34:49.251Z,97265.05
2023-02-02T12:37:30.356Z,97267.23
2023-02-02T12:40:24.042Z,97267.03
2023-02-02T12:43:22.215Z,97265.90
2023-02-02T12:45:53.581Z,97265.70
2023-02-02T12:48:38.907Z,97263.91
2023-02-02T12:51:37.289Z,97263.25
2023-02-02T12:54:32.663Z,97262.45
2023-02-02T12:57:08.710Z,97265.06
2023-02-02T12:59:58.617Z,97270.30
2023-02-02T13:02:58.116Z,97267.04
2023-02-02T13:05:42.095Z,97272.02
2023-02-02T13:08:15.058Z,97272.55
2023-02-02T13:10:46.294Z,97268.20
2023-02-02T13:13:24.891Z,97270.59
2023-02-02T13:16:12.852Z,97267.55
2023-02-02T13:19:01.733Z,97270.98
2023-02-02T13:21:31.691Z,97271.43
2023-02-02T13:24:05.106Z,97274.00
2023-02-02T13:26:45.215Z,97277.84
2023-02-02T13:29:48.375Z,97275.07
2023-02-02T13:32:36.115Z,97282.59
2023-02-02T13:35:19.397Z,97291.25
2023-02-02T13:38:14.905Z,97293.98
2023-02-02T13:40:44.295Z,97294.83
2023-02-02T13:43:19.147Z,97302.27
2023-02-02T13:46:06.253Z,97301.59
2023-02-02T13:49:06.893Z,97304.89
2023-02-02T13:51:58.536Z,97305.58
2023-02-02T13:54:47.514Z,97307.63
2023-02-02T13:57:59.375Z,97311.81
2023-02-02T14:00:35.084Z,97320.47
2023-02-02T14:03:07.438Z,97324.08
2023-02-02T14:05:40.232Z,97328.21
2023-02-02T14:08:08.643Z,97327.54
2023-02-02T14:10:40.305Z,97329.05
2023-02-02T14:13:39.220Z,97333.98
2023-02-02T14:16:19.414Z,97335.76
2023-02-02T14:18:56.979Z,97340.36
2023-02-02T14:21:31.516Z,97336.44
2023-02-02T14:24:22.522Z,97340.98
2023-02-02T14:26:59.875Z,97344.27
2023-02-02T14:29:39.684Z,97343.09
2023-02-02T14:32:29.760Z,97343.34
2023-02-02T14:35:25.005Z,97342.04
2023-02-02T14:38:14.810Z,97340.96
2023-02-02T14:40:49.111Z,97342.21
2023-02-02T14:43:46.492Z,97338.61
2023-02-02T14:46:14.973Z,97336.17
2023-02-02T14:48:48.036Z,97337.33
2023-02-02T14:51:26.794Z,97330.30
2023-02-02T14:54:05.367Z,97327.45
2023-02-02T14:56:54.583Z,97331.54
2023-02-02T14:59:37.568Z,97333.27
2023-02-02T15:02:15.545Z,97336.77
2023-02-02T15:04:52.184Z,97340.01
2023-02-02T15:07:24.173Z,97341.90
2023-02-02T15:09:56.626Z,97343.73
2023-02-02T15:12:40.058Z,97342.59
2023-02-02T15:15:21.237Z,97341.40
2023-02-02T15:18:03.120Z,97339.88
2023-02-02T15:20:37.333Z,97339.98
2023-02-02T15:23:33.851Z,97345.26
2023-02-02T15:26:25.069Z,97343.96
2023-02-02T15:28:59.710Z,97345.74
2023-02-02T15:31:34.218Z,97346.41
2023-02-02T15:34:46.121Z,97347.73
2023-02-02T15:37:23.493Z,97355.64
2023-02-02T15:40:00.041Z,97361.73
2023-02-02T15:42:58.951Z,97365.84
2023-02-02T15:45:49.319Z,97364.71
2023-02-02T15:48:30.232Z,97366.36
2023-02-02T15:51:05.469Z,97369.57
2023-02-02T15:53:43.188Z,97368.30
2023-02-02T15:56:24.457Z,97369.70
2023-02-02T15:58:55.683Z,97371.38
2023-02-02T16:01:26.712Z,97371.13
2023-02-02T16:04:17.980Z,97372.25
2023-02-02T16:06:48.156Z,97377.27
2023-02-02T16:09:27.000Z,97376.71
2023-02-02T16:11:55.608Z,97380.23
2023-02-02T16:14:24.209Z,97388.42
2023-02-02T16:16:52.996Z,97393.86
2023-02-02T16:19:24.029Z,97398.23
2023-02-02T16:22:08.031Z,97402.48
2023-02-02T16:24:44.304Z,97410.42
2023-02-02T16:27:19.804Z,97412.88
2023-02-02T16:29:49.666Z,97414.51
2023-02-02T16:32:37.340Z,97417.04
2023-02-02T16:35:24.415Z,97419.37
2023-02-02T16:37:52.981Z,97418.85
2023-02-02T16:40:30.154Z,97420.59
2023-02-02T16:43:07.338Z,97420.44
2023-02-02T16:45:45.869Z,97420.94
2023-02-02T16:48:34.550Z,97420.66
2023-02-02T16:51:34.019Z,97425.21
2023-02-02T16:54:20.611Z,97428.40
2023-02-02T16:57:00.844Z,97428.29
2023-02-02T16:59:35.576Z,97427.07
2023-02-02T17:02:21.206Z,97427.24
2023-02-02T17:04:53.761Z,97428.95
2023-02-02T17:07:22.847Z,97429.05
2023-02-02T17:10:18.707Z,97431.08
2023-02-02T17:12:47.380Z,97432.83
2023-02-02T17:15:18.849Z,97438.80
2023-02-02T17:17:49.444Z,97441.58
2023-02-02T17:20:18.916Z,97437.98
2023-02-02T17:22:55.025Z,97438.90
2023-02-02T17:25:30.219Z,97435.71
2023-02-02T17:28:00.340Z,97440.51
2023-02-02T17:30:29.636Z,97449.52
2023-02-02T17:32:58.180Z,97451.19
2023-02-02T17:35:34.648Z,97456.03
2023-02-02T17:38:08.624Z,97460.88
2023-02-02T17:40:37.275Z,97463.30
2023-02-02T17:43:07.223Z,97460.41
2023-02-02T17:45:38.723Z,97459.10
2023-02-02T17:48:09.848Z,97460.01
2023-02-02T17:50:39.345Z,97459.77
2023-02-02T17:53:12.340Z,97461.00
2023-02-02T17:55:43.232Z,97458.13
2023-02-02T17:58:15.093Z,97459.08
2023-02-02T18:00:46.805Z,97462.08
2023-02-02T18:03:27.288Z,97462.14
2023-02-02T18:05:57.741Z,97462.40
2023-02-02T18:08:26.431Z,97461.46
2023-02-02T18:10:55.011Z,97460.55
2023-02-02T18:13:24.047Z,97460.52
2023-02-02T18:15:54.105Z,97461.08
2023-02-02T18:18:23.212Z,97462.87
2023-02-02T18:20:51.892Z,97461.27
2023-02-02T18:23:20.682Z,97463.27
2023-02-02T18:25:49.507Z,97466.17
2023-02-02T18:28:18.152Z,97469.02
2023-02-02T18:30:47.768Z,97470.22
2023-02-02T18:33:19.880Z,97469.77
2023-02-02T18:35:48.669Z,97472.81
2023-02-02T18:38:18.208Z,97476.50
2023-02-02T18:40:55.285Z,97479.16
2023-02-02T18:43:23.748Z,97478.96
2023-02-02T18:46:06.375Z,97481.08
2023-02-02T18:48:36.244Z,97481.48
2023-02-02T18:51:08.938Z,97481.89
2023-02-02T18:53:37.417Z,97482.98
2023-02-02T18:56:07.666Z,97488.83
2023-02-02T18:58:37.296Z,97490.73
2023-02-02T19:01:14.367Z,97495.42
2023-02-02T19:03:43.470Z,97494.66
2023-02-02T19:06:30.802Z,97496.14
2023-02-02T19:08:59.445Z,97497.10
2023-02-02T19:11:39.228Z,97497.57
2023-02-02T19:14:19.771Z,97503.18
2023-02-02T19:16:48.963Z,97511.87
2023-02-02T19:19:33.587Z,97511.66
2023-02-02T19:22:12.939Z,97516.54
2023-02-02T19:24:41.437Z,97510.83
2023-02-02T19:27:21.579Z,97511.15
2023-02-02T19:29:52.907Z,97515.23
2023-02-02T19:32:23.650Z,97516.77
2023-02-02T19:34:53.206Z,97517.30
2023-02-02T19:37:33.064Z,97526.48
2023-02-02T19:40:07.440Z,97527.71
2023-02-02T19:42:46.153Z,97533.48
2023-02-02T19:45:23.938Z,97530.96
2023-02-02T19:47:54.559Z,97532.73
2023-02-02T19:50:26.400Z,97532.20
2023-02-02T19:52:56.158Z,97534.92
2023-02-02T19:55:35.090Z,97540.95
2023-02-02T19:58:21.935Z,97544.67
2023-02-02T20:00:52.453Z,97544.77
2023-02-02T20:03:24.711Z,97546.15
2023-02-02T20:05:55.595Z,97545.02
2023-02-02T20:08:26.999Z,97549.38
2023-02-02T20:11:00.852Z,97550.88
2023-02-02T20:13:32.378Z,97553.77
2023-02-02T20:16:04.407Z,97554.64
2023-02-02T20:18:44.727Z,97559.23
2023-02-02T20:21:43.179Z,97561.35
2023-02-02T20:24:19.284Z,97569.14
2023-02-02T20:26:47.883Z,97575.11
2023-02-02T20:29:25.701Z,97578.40
2023-02-02T20:31:57.108Z,97587.07
2023-02-02T20:34:35.729Z,97593.77
2023-02-02T20:37:13.100Z,97601.14
2023-02-02T20:39:41.733Z,97606.44
2023-02-02T20:42:10.383Z,97609.06
2023-02-02T20:44:38.956Z,97609.17
2023-02-02T20:47:09.013Z,97608.89
2023-02-02T20:49:38.692Z,97609.52
2023-02-02T20:52:11.166Z,97611.33
2023-02-02T20:54:39.953Z,97612.98
2023-02-02T20:57:08.623Z,97618.99
2023-02-02T20:59:37.142Z,97622.81
2023-02-02T21:02:06.458Z,97629.38
2023-02-02T21:04:35.197Z,97628.48
2023-02-02T21:07:03.755Z,97632.88
2023-02-02T21:09:32.243Z,97637.58
2023-02-02T21:12:00.685Z,97635.17
2023-02-02T21:14:29.215Z,97635.13
2023-02-02T21:17:12.907Z,97633.74
2023-02-02T21:19:43.989Z,97631.32
2023-02-02T21:22:13.025Z,97637.91
2023-02-02T21:24:42.797Z,97638.24
2023-02-02T21:27:11.381Z,97635.88
2023-02-02T21:29:40.349Z,97640.19
2023-02-02T21:32:09.007Z,97644.34
2023-02-02T21:34:37.951Z,97642.46
2023-02-02T21:37:14.147Z,97646.15
2023-02-02T21:39:48.801Z,97652.30
2023-02-02T21:42:22.507Z,97660.75
2023-02-02T21:44:54.254Z,97670.82
2023-02-02T21:47:25.576Z,97682.02
2023-02-02T21:50:02.890Z,97694.23
2023-02-02T21:52:34.086Z,97703.71
2023-02-02T21:55:27.612Z,97700.48
2023-02-02T21:57:58.505Z,97692.10
2023-02-02T22:00:32.580Z,97690.31
2023-02-02T22:03:01.046Z,97694.67
2023-02-02T22:05:36.168Z,97698.33
2023-02-02T22:08:21.023Z,97698.05
2023-02-02T22:10:49.942Z,97699.05
2023-02-02T22:13:21.009Z,97698.27
2023-02-02T22:15:51.914Z,97702.48
2023-02-02T22:18:23.739Z,97704.09
2023-02-02T22:20:54.657Z,97704.09
2023-02-02T22:23:28.420Z,97707.95
2023-02-02T22:25:58.483Z,97707.81
2023-02-02T22:28:36.875Z,97712.52
2023-02-02T22:31:05.875Z,97713.47
2023-02-02T22:33:34.417Z,97717.04
2023-02-02T22:36:03.241Z,97717.98
2023-02-02T22:38:31.703Z,97719.23
2023-02-02T22:41:00.175Z,97715.25
2023-02-02T22:43:28.565Z,97713.33
2023-02-02T22:45:57.071Z,97711.10
2023-02-02T22:48:25.557Z,97713.39
2023-02-02T22:50:54.000Z,97716.18
2023-02-02T22:53:22.533Z,97719.77
2023-02-02T22:55:56.531Z,97723.98
2023-02-02T22:58:25.712Z,97723.31
2023-02-02T23:00:54.199Z,97729.12
2023-02-02T23:03:22.609Z,97729.74
2023-02-02T23:05:51.025Z,97730.88
2023-02-02T23:08:19.430Z,97734.33
2023-02-02T23:10:48.192Z,97743.39
2023-02-02T23:13:16.661Z,97748.69
2023-02-02T23:15:45.200Z,97748.73
2023-02-02T23:18:13.652Z,97751.19
2023-02-02T23:20:42.061Z,97754.73
2023-02-02T23:23:10.510Z,97764.20
2023-02-02T23:25:38.920Z,97776.45
2023-02-02T23:28:09.795Z,97777.05
2023-02-02T23:30:38.243Z,97780.67
2023-02-02T23:33:06.678Z,97782.38
2023-02-02T23:35:35.055Z,97786.41
2023-02-02T23:38:03.495Z,97784.16
2023-02-02T23:40:31.919Z,97786.04
2023-02-02T23:43:00.281Z,97785.27
2023-02-02T23:45:28.679Z,97789.89
2023-02-02T23:47:57.074Z,97790.89
2023-02-02T23:50:25.815Z,97792.39
2023-02-02T23:52:54.556Z,97802.58
2023-02-02T23:55:22.926Z,97808.31
2023-02-02T23:57:51.394Z,97813.75
